createdAt,value
2018-07-16T00:00:16.745Z,19.43
2018-07-16T00:01:16.735Z,19.41
2018-07-16T00:02:16.738Z,19.33
2018-07-16T00:03:16.712Z,19.33
2018-07-16T00:04:16.698Z,19.23
2018-07-16T00:05:16.687Z,19.26
2018-07-16T00:06:16.678Z,19.31
2018-07-16T00:07:16.662Z,19.28
2018-07-16T00:08:16.669Z,19.23
2018-07-16T00:09:16.644Z,19.18
2018-07-16T00:10:16.630Z,19.08
2018-07-16T00:11:16.620Z,19.11
2018-07-16T00:12:16.624Z,19.22
2018-07-16T00:13:16.596Z,19.11
2018-07-16T00:14:16.587Z,19.16
2018-07-16T00:15:16.572Z,19.08
2018-07-16T00:16:16.558Z,19.10
2018-07-16T00:17:16.552Z,19.13
2018-07-16T00:18:16.555Z,19.11
2018-07-16T00:19:16.528Z,19.08
2018-07-16T00:20:16.516Z,19.00
2018-07-16T00:21:16.518Z,19.06
2018-07-16T00:22:16.491Z,19.02
2018-07-16T00:23:16.483Z,19.00
2018-07-16T00:24:16.468Z,19.02
2018-07-16T00:25:16.457Z,18.95
2018-07-16T00:26:16.445Z,18.94
2018-07-16T00:27:16.449Z,18.94
2018-07-16T00:28:16.421Z,18.87
2018-07-16T00:29:16.424Z,18.82
2018-07-16T00:30:16.398Z,18.84
2018-07-16T00:31:16.393Z,18.76
2018-07-16T00:32:16.376Z,18.72
2018-07-16T00:33:16.384Z,18.72
2018-07-16T00:34:16.349Z,18.65
2018-07-16T00:35:16.347Z,18.66
2018-07-16T00:36:16.330Z,18.60
2018-07-16T00:37:16.317Z,18.63
2018-07-16T00:38:16.306Z,18.58
2018-07-16T00:39:16.309Z,18.63
2018-07-16T00:40:16.281Z,18.52
2018-07-16T00:41:16.266Z,18.57
2018-07-16T00:42:16.257Z,18.48
2018-07-16T00:43:16.251Z,18.62
2018-07-16T00:44:16.275Z,18.54
2018-07-16T00:45:16.239Z,18.54
2018-07-16T00:46:16.211Z,18.52
2018-07-16T00:47:16.200Z,18.54
2018-07-16T00:48:16.187Z,18.48
2018-07-16T00:49:16.176Z,18.58
2018-07-16T00:50:16.178Z,18.54
2018-07-16T00:51:16.164Z,18.48
2018-07-16T00:52:16.139Z,18.54
2018-07-16T00:53:16.128Z,18.51
2018-07-16T00:54:16.116Z,18.52
2018-07-16T00:55:16.120Z,18.62
2018-07-16T00:56:16.093Z,18.52
2018-07-16T00:57:16.094Z,18.57
2018-07-16T00:58:16.072Z,18.55
2018-07-16T00:59:16.062Z,18.54
2018-07-16T01:00:16.046Z,18.57
2018-07-16T01:01:16.048Z,18.55
2018-07-16T01:02:16.020Z,18.45
2018-07-16T01:03:16.011Z,18.37
2018-07-16T01:04:15.997Z,18.48
2018-07-16T01:05:15.987Z,18.55
2018-07-16T01:06:15.990Z,18.52
2018-07-16T01:07:15.960Z,18.63
2018-07-16T01:08:15.967Z,18.67
2018-07-16T01:09:15.941Z,18.70
2018-07-16T01:10:15.929Z,18.65
2018-07-16T01:11:15.910Z,18.65
2018-07-16T01:12:15.903Z,18.60
2018-07-16T01:13:15.906Z,18.63
2018-07-16T01:14:15.878Z,18.58
2018-07-16T01:15:15.865Z,18.54
2018-07-16T01:16:15.853Z,18.58
2018-07-16T01:17:15.854Z,18.52
2018-07-16T01:18:15.846Z,18.45
2018-07-16T01:19:15.816Z,18.50
2018-07-16T01:20:15.803Z,18.41
2018-07-16T01:21:15.789Z,18.44
2018-07-16T01:22:15.781Z,18.48
2018-07-16T01:23:15.772Z,18.45
2018-07-16T01:24:15.770Z,18.44
2018-07-16T01:25:15.739Z,18.47
2018-07-16T01:26:15.733Z,18.52
2018-07-16T01:27:15.721Z,18.47
2018-07-16T01:28:15.710Z,18.44
2018-07-16T01:29:15.712Z,18.45
2018-07-16T01:30:15.681Z,18.33
2018-07-16T01:31:15.672Z,18.36
2018-07-16T01:32:15.658Z,18.27
2018-07-16T01:33:15.646Z,18.27
2018-07-16T01:34:15.635Z,18.26
2018-07-16T01:35:15.639Z,18.32
2018-07-16T01:36:15.613Z,18.39
2018-07-16T01:37:15.598Z,18.39
2018-07-16T01:38:15.591Z,18.35
2018-07-16T01:39:15.574Z,18.37
2018-07-16T01:40:15.572Z,18.26
2018-07-16T01:41:15.550Z,18.25
2018-07-16T01:42:15.537Z,18.27
2018-07-16T01:43:15.527Z,18.10
2018-07-16T01:44:15.513Z,18.20
2018-07-16T01:45:15.496Z,18.10
2018-07-16T01:46:15.505Z,18.11
2018-07-16T01:47:15.486Z,17.97
2018-07-16T01:48:15.464Z,18.05
2018-07-16T01:49:15.455Z,18.08
2018-07-16T01:50:15.439Z,18.15
2018-07-16T01:51:15.439Z,18.10
2018-07-16T01:52:15.414Z,18.20
2018-07-16T01:53:15.400Z,18.20
2018-07-16T01:54:15.394Z,18.15
2018-07-16T01:55:15.394Z,18.20
2018-07-16T01:56:15.363Z,18.21
2018-07-16T01:57:15.368Z,18.18
2018-07-16T01:58:15.341Z,18.17
2018-07-16T01:59:15.333Z,18.21
2018-07-16T02:00:15.314Z,18.12
2018-07-16T02:01:15.307Z,18.21
2018-07-16T02:02:15.310Z,18.17
2018-07-16T02:03:15.279Z,18.23
2018-07-16T02:04:15.268Z,18.14
2018-07-16T02:05:15.256Z,18.20
2018-07-16T02:06:15.238Z,18.14
2018-07-16T02:07:15.230Z,17.97
2018-07-16T02:08:15.229Z,18.02
2018-07-16T02:09:15.209Z,17.86
2018-07-16T02:10:15.192Z,17.84
2018-07-16T02:11:15.179Z,17.87
2018-07-16T02:12:15.185Z,18.00
2018-07-16T02:13:15.172Z,17.93
2018-07-16T02:14:15.147Z,18.03
2018-07-16T02:15:15.134Z,18.08
2018-07-16T02:16:15.119Z,18.10
2018-07-16T02:17:15.106Z,18.20
2018-07-16T02:18:15.095Z,18.18
2018-07-16T02:19:15.098Z,18.20
2018-07-16T02:20:15.070Z,18.21
2018-07-16T02:21:15.056Z,18.18
2018-07-16T02:22:15.046Z,18.23
2018-07-16T02:23:15.037Z,18.23
2018-07-16T02:24:15.037Z,18.15
2018-07-16T02:25:15.009Z,18.12
2018-07-16T02:26:14.998Z,18.05
2018-07-16T02:27:14.983Z,18.00
2018-07-16T02:28:14.971Z,17.95
2018-07-16T02:29:14.971Z,17.92
2018-07-16T02:30:14.947Z,17.86
2018-07-16T02:31:14.936Z,17.78
2018-07-16T02:32:14.921Z,17.79
2018-07-16T02:33:14.909Z,17.75
2018-07-16T02:34:14.914Z,17.75
2018-07-16T02:35:14.884Z,17.79
2018-07-16T02:36:14.873Z,17.78
2018-07-16T02:37:14.862Z,17.81
2018-07-16T02:38:14.848Z,17.87
2018-07-16T02:39:14.838Z,17.84
2018-07-16T02:40:14.840Z,17.87
2018-07-16T02:41:14.810Z,17.90
2018-07-16T02:42:14.797Z,17.99
2018-07-16T02:43:14.786Z,18.02
2018-07-16T02:44:14.773Z,18.00
2018-07-16T02:45:14.762Z,18.07
2018-07-16T02:46:14.766Z,18.07
2018-07-16T02:47:14.731Z,18.07
2018-07-16T02:48:14.726Z,18.05
2018-07-16T02:49:14.711Z,18.08
2018-07-16T02:50:14.714Z,18.02
2018-07-16T02:51:14.686Z,17.96
2018-07-16T02:52:14.677Z,18.02
2018-07-16T02:53:14.661Z,17.87
2018-07-16T02:54:14.647Z,17.89
2018-07-16T02:55:14.669Z,17.89
2018-07-16T02:56:14.692Z,17.79
2018-07-16T02:57:14.611Z,17.77
2018-07-16T02:58:14.598Z,17.75
2018-07-16T02:59:14.592Z,17.62
2018-07-16T03:00:14.573Z,17.64
2018-07-16T03:01:14.581Z,17.54
2018-07-16T03:02:14.547Z,17.52
2018-07-16T03:03:14.537Z,17.43
2018-07-16T03:04:14.528Z,17.43
2018-07-16T03:05:14.510Z,17.48
2018-07-16T03:06:14.498Z,17.36
2018-07-16T03:07:14.501Z,17.28
2018-07-16T03:08:14.476Z,17.34
2018-07-16T03:09:14.461Z,17.34
2018-07-16T03:10:14.446Z,17.21
2018-07-16T03:11:14.437Z,17.12
2018-07-16T03:12:35.433Z,17.14
2018-07-16T03:13:14.413Z,17.14
2018-07-16T03:14:14.403Z,17.08
2018-07-16T03:15:14.381Z,17.11
2018-07-16T03:16:14.372Z,17.08
2018-07-16T03:17:14.378Z,16.98
2018-07-16T03:18:14.440Z,17.01
2018-07-16T03:19:14.332Z,16.97
2018-07-16T03:20:14.322Z,17.00
2018-07-16T03:21:14.305Z,16.97
2018-07-16T03:22:14.297Z,16.94
2018-07-16T03:23:14.298Z,16.94
2018-07-16T03:24:14.269Z,16.98
2018-07-16T03:25:14.252Z,17.00
2018-07-16T03:26:14.240Z,16.98
2018-07-16T03:27:14.231Z,16.98
2018-07-16T03:28:14.219Z,16.91
2018-07-16T03:29:14.219Z,16.88
2018-07-16T03:30:14.192Z,16.88
2018-07-16T03:31:14.182Z,16.93
2018-07-16T03:32:14.168Z,16.98
2018-07-16T03:33:14.161Z,16.98
2018-07-16T03:34:14.156Z,16.96
2018-07-16T03:35:14.128Z,17.00
2018-07-16T03:36:14.115Z,17.14
2018-07-16T03:37:14.103Z,17.08
2018-07-16T03:38:14.099Z,17.04
2018-07-16T03:39:14.097Z,17.08
2018-07-16T03:40:14.064Z,17.08
2018-07-16T03:41:14.054Z,17.16
2018-07-16T03:42:14.039Z,17.08
2018-07-16T03:43:14.023Z,17.18
2018-07-16T03:44:14.015Z,17.14
2018-07-16T03:45:14.015Z,17.15
2018-07-16T03:46:13.988Z,17.12
2018-07-16T03:47:13.973Z,17.12
2018-07-16T03:48:13.965Z,17.16
2018-07-16T03:49:13.965Z,17.08
2018-07-16T03:50:13.934Z,17.06
2018-07-16T03:51:13.921Z,17.11
2018-07-16T03:52:13.911Z,17.11
2018-07-16T03:53:13.899Z,16.96
2018-07-16T03:54:13.883Z,17.00
2018-07-16T03:55:13.887Z,16.96
2018-07-16T03:56:13.873Z,16.94
2018-07-16T03:57:13.846Z,16.97
2018-07-16T03:58:13.828Z,16.97
2018-07-16T03:59:13.819Z,16.97
2018-07-16T04:00:13.809Z,16.97
2018-07-16T04:01:13.804Z,17.06
2018-07-16T04:02:13.785Z,17.06
2018-07-16T04:03:13.782Z,17.03
2018-07-16T04:04:13.754Z,17.01
2018-07-16T04:05:13.739Z,16.91
2018-07-16T04:06:13.729Z,17.01
2018-07-16T04:07:13.734Z,16.94
2018-07-16T04:08:13.704Z,17.01
2018-07-16T04:09:13.690Z,16.85
2018-07-16T04:10:13.678Z,16.82
2018-07-16T04:11:13.668Z,16.83
2018-07-16T04:12:13.649Z,16.88
2018-07-16T04:13:13.652Z,16.91
2018-07-16T04:14:13.629Z,16.94
2018-07-16T04:15:13.612Z,16.85
2018-07-16T04:16:13.600Z,16.89
2018-07-16T04:17:13.587Z,16.88
2018-07-16T04:18:13.590Z,16.97
2018-07-16T04:19:13.563Z,16.96
2018-07-16T04:20:13.550Z,16.98
2018-07-16T04:21:13.550Z,16.98
2018-07-16T04:22:13.525Z,17.01
2018-07-16T04:23:13.525Z,16.93
2018-07-16T04:24:13.496Z,17.06
2018-07-16T04:25:13.484Z,17.04
2018-07-16T04:26:13.487Z,17.15
2018-07-16T04:27:13.458Z,17.28
2018-07-16T04:28:13.459Z,17.28
2018-07-16T04:29:13.434Z,17.48
2018-07-16T04:30:13.422Z,17.54
2018-07-16T04:31:13.424Z,17.68
2018-07-16T04:32:13.388Z,17.82
2018-07-16T04:33:13.380Z,17.77
2018-07-16T04:34:13.368Z,17.84
2018-07-16T04:35:13.355Z,17.93
2018-07-16T04:36:13.338Z,18.17
2018-07-16T04:37:13.342Z,18.42
2018-07-16T04:38:13.316Z,18.63
2018-07-16T04:39:13.301Z,18.73
2018-07-16T04:40:13.291Z,18.78
2018-07-16T04:41:13.296Z,18.92
2018-07-16T04:42:13.263Z,19.08
2018-07-16T04:43:13.263Z,19.22
2018-07-16T04:44:13.245Z,19.29
2018-07-16T04:45:13.234Z,19.39
2018-07-16T04:46:13.218Z,19.54
2018-07-16T04:47:13.220Z,19.65
2018-07-16T04:48:13.193Z,19.62
2018-07-16T04:49:13.179Z,19.84
2018-07-16T04:50:13.170Z,20.02
2018-07-16T04:51:13.166Z,20.14
2018-07-16T04:52:13.144Z,20.24
2018-07-16T04:53:13.146Z,20.28
2018-07-16T04:54:13.134Z,20.26
2018-07-16T04:55:13.111Z,20.17
2018-07-16T04:56:13.131Z,20.18
2018-07-16T04:57:13.107Z,20.02
2018-07-16T04:58:13.073Z,19.94
2018-07-16T04:59:13.073Z,19.88
2018-07-16T05:00:13.045Z,19.84
2018-07-16T05:01:13.037Z,19.81
2018-07-16T05:02:13.048Z,19.73
2018-07-16T05:03:13.112Z,19.48
2018-07-16T05:04:13.003Z,19.66
2018-07-16T05:05:12.993Z,19.51
2018-07-16T05:06:12.984Z,19.55
2018-07-16T05:07:12.968Z,19.56
2018-07-16T05:08:12.977Z,19.48
2018-07-16T05:09:12.943Z,19.48
2018-07-16T05:10:12.936Z,19.41
2018-07-16T05:11:12.926Z,19.37
2018-07-16T05:12:12.911Z,19.32
2018-07-16T05:13:12.901Z,19.33
2018-07-16T05:14:12.905Z,19.31
2018-07-16T05:15:12.889Z,19.25
2018-07-16T05:16:12.866Z,19.32
2018-07-16T05:17:12.860Z,19.22
2018-07-16T05:18:12.879Z,19.29
2018-07-16T05:19:12.836Z,19.31
2018-07-16T05:20:12.822Z,19.22
2018-07-16T05:21:12.810Z,19.31
2018-07-16T05:22:12.798Z,19.25
2018-07-16T05:23:12.803Z,19.40
2018-07-16T05:24:12.856Z,19.41
2018-07-16T05:25:12.762Z,19.50
2018-07-16T05:26:12.757Z,19.50
2018-07-16T05:27:12.743Z,19.63
2018-07-16T05:28:12.748Z,19.61
2018-07-16T05:29:12.774Z,19.61
2018-07-16T05:30:12.709Z,19.66
2018-07-16T05:31:12.699Z,19.74
2018-07-16T05:32:12.800Z,19.81
2018-07-16T05:33:12.695Z,19.92
2018-07-16T05:34:12.668Z,19.99
2018-07-16T05:35:12.652Z,20.05
2018-07-16T05:36:12.638Z,20.13
2018-07-16T05:37:12.631Z,20.24
2018-07-16T05:38:12.639Z,20.50
2018-07-16T05:39:12.611Z,20.50
2018-07-16T05:40:12.593Z,20.48
2018-07-16T05:41:12.702Z,20.58
2018-07-16T05:42:12.590Z,20.70
2018-07-16T05:43:13.453Z,20.67
2018-07-16T05:44:12.576Z,20.70
2018-07-16T05:45:12.544Z,20.72
2018-07-16T05:46:12.526Z,20.64
2018-07-16T05:47:12.538Z,20.54
2018-07-16T05:48:12.512Z,20.61
2018-07-16T05:49:12.515Z,20.52
2018-07-16T05:50:12.513Z,20.47
2018-07-16T05:51:12.484Z,20.48
2018-07-16T05:52:12.482Z,20.39
2018-07-16T05:53:12.467Z,20.43
2018-07-16T05:54:12.436Z,20.38
2018-07-16T05:55:12.490Z,20.38
2018-07-16T05:56:12.420Z,20.48
2018-07-16T05:57:12.420Z,20.57
2018-07-16T05:58:12.475Z,20.51
2018-07-16T05:59:12.395Z,20.67
2018-07-16T06:00:12.389Z,20.70
2018-07-16T06:01:12.404Z,20.87
2018-07-16T06:02:12.379Z,20.92
2018-07-16T06:03:12.379Z,21.09
2018-07-16T06:04:12.353Z,21.10
2018-07-16T06:05:12.352Z,21.16
2018-07-16T06:06:12.324Z,21.17
2018-07-16T06:07:12.321Z,21.31
2018-07-16T06:08:12.292Z,21.38
2018-07-16T06:09:12.293Z,21.42
2018-07-16T06:10:12.283Z,21.40
2018-07-16T06:11:12.274Z,21.49
2018-07-16T06:12:12.241Z,21.47
2018-07-16T06:13:12.252Z,21.43
2018-07-16T06:14:12.237Z,21.42
2018-07-16T06:15:12.290Z,21.44
2018-07-16T06:16:12.202Z,21.53
2018-07-16T06:17:12.189Z,21.58
2018-07-16T06:18:12.178Z,21.56
2018-07-16T06:19:12.168Z,21.71
2018-07-16T06:20:12.171Z,21.90
2018-07-16T06:21:12.157Z,21.92
2018-07-16T06:22:13.514Z,21.99
2018-07-16T06:23:12.125Z,22.07
2018-07-16T06:24:12.110Z,22.20
2018-07-16T06:25:12.098Z,22.33
2018-07-16T06:26:12.149Z,22.35
2018-07-16T06:27:12.080Z,22.43
2018-07-16T06:28:12.066Z,22.51
2018-07-16T06:29:12.057Z,22.51
2018-07-16T06:30:12.043Z,22.39
2018-07-16T06:31:12.059Z,22.27
2018-07-16T06:32:12.026Z,22.31
2018-07-16T06:33:12.018Z,22.35
2018-07-16T06:34:12.009Z,22.30
2018-07-16T06:35:12.012Z,22.22
2018-07-16T06:36:11.983Z,22.10
2018-07-16T06:37:11.972Z,22.28
2018-07-16T06:38:12.433Z,22.27
2018-07-16T06:39:11.950Z,22.33
2018-07-16T06:40:33.140Z,22.35
2018-07-16T06:41:12.348Z,22.33
2018-07-16T06:42:11.930Z,22.43
2018-07-16T06:43:11.911Z,22.49
2018-07-16T06:44:11.901Z,22.65
2018-07-16T06:45:11.888Z,22.70
2018-07-16T06:46:11.874Z,22.88
2018-07-16T06:47:11.884Z,23.01
2018-07-16T06:48:11.852Z,23.16
2018-07-16T06:49:11.846Z,23.10
2018-07-16T06:50:11.843Z,23.09
2018-07-16T06:51:11.819Z,23.22
2018-07-16T06:52:11.833Z,23.19
2018-07-16T06:53:11.805Z,23.23
2018-07-16T06:54:11.788Z,23.20
2018-07-16T06:55:11.825Z,23.35
2018-07-16T06:56:11.779Z,23.31
2018-07-16T06:57:11.778Z,23.38
2018-07-16T06:58:11.752Z,23.42
2018-07-16T06:59:11.794Z,23.47
2018-07-16T07:00:11.731Z,23.55
2018-07-16T07:01:11.718Z,23.61
2018-07-16T07:02:11.760Z,23.65
2018-07-16T07:03:11.724Z,23.66
2018-07-16T07:04:11.691Z,23.66
2018-07-16T07:05:11.677Z,23.75
2018-07-16T07:06:11.665Z,23.60
2018-07-16T07:07:11.661Z,23.63
2018-07-16T07:08:11.664Z,23.58
2018-07-16T07:09:11.658Z,23.63
2018-07-16T07:10:11.675Z,23.65
2018-07-16T07:11:11.614Z,23.66
2018-07-16T07:12:11.608Z,23.73
2018-07-16T07:13:11.608Z,23.83
2018-07-16T07:14:11.602Z,23.79
2018-07-16T07:15:11.574Z,23.79
2018-07-16T07:16:11.571Z,23.70
2018-07-16T07:17:11.560Z,23.60
2018-07-16T07:18:11.591Z,23.43
2018-07-16T07:19:11.540Z,23.36
2018-07-16T07:20:11.547Z,23.20
2018-07-16T07:21:11.515Z,23.38
2018-07-16T07:22:11.507Z,23.47
2018-07-16T07:23:11.500Z,23.53
2018-07-16T07:24:11.576Z,23.61
2018-07-16T07:25:11.475Z,23.69
2018-07-16T07:26:11.483Z,23.83
2018-07-16T07:27:11.452Z,23.93
2018-07-16T07:28:11.445Z,24.09
2018-07-16T07:29:11.434Z,24.12
2018-07-16T07:30:11.446Z,24.22
2018-07-16T07:31:11.419Z,24.37
2018-07-16T07:32:11.403Z,24.39
2018-07-16T07:33:11.394Z,24.43
2018-07-16T07:34:11.395Z,24.34
2018-07-16T07:35:11.417Z,24.46
2018-07-16T07:36:11.376Z,24.50
2018-07-16T07:37:11.356Z,24.46
2018-07-16T07:38:11.362Z,24.31
2018-07-16T07:39:11.337Z,24.16
2018-07-16T07:40:11.329Z,24.15
2018-07-16T07:41:11.333Z,24.16
2018-07-16T07:42:11.308Z,24.16
2018-07-16T07:43:11.297Z,24.21
2018-07-16T07:44:11.289Z,24.21
2018-07-16T07:45:11.272Z,24.31
2018-07-16T07:46:11.298Z,24.30
2018-07-16T07:47:11.257Z,24.39
2018-07-16T07:48:11.253Z,24.46
2018-07-16T07:49:11.239Z,24.45
2018-07-16T07:50:11.228Z,24.50
2018-07-16T07:51:11.221Z,24.58
2018-07-16T07:52:11.223Z,24.60
2018-07-16T07:53:11.212Z,24.71
2018-07-16T07:54:11.316Z,24.84
2018-07-16T07:55:11.544Z,24.91
2018-07-16T07:56:11.168Z,25.08
2018-07-16T07:57:11.162Z,25.15
2018-07-16T07:58:11.169Z,25.15
2018-07-16T07:59:11.146Z,25.24
2018-07-16T08:00:11.130Z,25.21
2018-07-16T08:01:11.118Z,25.42
2018-07-16T08:02:11.116Z,25.40
2018-07-16T08:03:11.184Z,25.58
2018-07-16T08:04:11.102Z,25.62
2018-07-16T08:05:11.081Z,25.65
2018-07-16T08:06:11.068Z,25.64
2018-07-16T08:07:11.061Z,25.69
2018-07-16T08:08:11.068Z,25.82
2018-07-16T08:09:11.062Z,25.75
2018-07-16T08:10:11.041Z,25.90
2018-07-16T08:11:11.028Z,25.90
2018-07-16T08:12:11.020Z,25.92
2018-07-16T08:13:11.010Z,25.99
2018-07-16T08:14:11.009Z,25.83
2018-07-16T08:15:10.991Z,25.50
2018-07-16T08:16:10.980Z,25.40
2018-07-16T08:17:10.970Z,25.42
2018-07-16T08:18:10.959Z,25.51
2018-07-16T08:19:10.969Z,25.46
2018-07-16T08:20:10.943Z,25.55
2018-07-16T08:21:10.952Z,25.65
2018-07-16T08:22:10.923Z,25.67
2018-07-16T08:23:10.913Z,25.77
2018-07-16T08:24:10.904Z,25.97
2018-07-16T08:25:10.889Z,26.01
2018-07-16T08:26:10.899Z,26.01
2018-07-16T08:27:10.875Z,26.06
2018-07-16T08:28:10.866Z,26.18
2018-07-16T08:29:10.872Z,26.29
2018-07-16T08:30:10.847Z,26.35
2018-07-16T08:31:10.843Z,26.54
2018-07-16T08:32:10.844Z,26.54
2018-07-16T08:33:10.817Z,26.55
2018-07-16T08:34:10.809Z,26.62
2018-07-16T08:35:10.802Z,26.75
2018-07-16T08:36:10.794Z,26.77
2018-07-16T08:37:10.799Z,26.82
2018-07-16T08:38:10.776Z,26.87
2018-07-16T08:39:10.840Z,26.85
2018-07-16T08:40:10.758Z,26.89
2018-07-16T08:41:10.745Z,26.97
2018-07-16T08:42:10.739Z,26.99
2018-07-16T08:43:10.749Z,27.06
2018-07-16T08:44:10.726Z,27.12
2018-07-16T08:45:10.712Z,27.18
2018-07-16T08:46:10.717Z,27.36
2018-07-16T08:47:10.696Z,27.50
2018-07-16T08:48:10.682Z,27.59
2018-07-16T08:49:10.692Z,27.74
2018-07-16T08:50:10.668Z,27.87
2018-07-16T08:51:10.682Z,27.90
2018-07-16T08:52:10.649Z,28.04
2018-07-16T08:53:10.638Z,28.19
2018-07-16T08:54:10.648Z,28.25
2018-07-16T08:55:10.622Z,28.39
2018-07-16T08:56:31.623Z,28.43
2018-07-16T08:57:10.601Z,28.48
2018-07-16T08:58:10.595Z,28.61
2018-07-16T08:59:10.651Z,28.77
2018-07-16T09:00:10.580Z,28.92
2018-07-16T09:01:10.570Z,29.33
2018-07-16T09:02:10.579Z,29.64
2018-07-16T09:03:31.577Z,29.95
2018-07-16T09:04:10.560Z,30.27
2018-07-16T09:05:10.589Z,30.37
2018-07-16T09:06:10.526Z,30.69
2018-07-16T09:07:10.617Z,31.20
2018-07-16T09:08:10.509Z,31.36
2018-07-16T09:09:10.516Z,31.63
2018-07-16T09:10:10.494Z,32.19
2018-07-16T09:11:10.493Z,32.57
2018-07-16T09:12:10.476Z,32.92
2018-07-16T09:13:10.527Z,33.19
2018-07-16T09:14:10.476Z,33.47
2018-07-16T09:15:10.457Z,33.69
2018-07-16T09:16:10.442Z,33.93
2018-07-16T09:17:10.436Z,34.12
2018-07-16T09:18:10.426Z,34.19
2018-07-16T09:19:10.443Z,34.49
2018-07-16T09:20:10.411Z,34.49
2018-07-16T09:21:10.416Z,34.52
2018-07-16T09:22:10.394Z,34.54
2018-07-16T09:23:10.386Z,34.66
2018-07-16T09:24:10.380Z,34.28
2018-07-16T09:25:10.388Z,33.82
2018-07-16T09:26:10.363Z,34.05
2018-07-16T09:27:10.360Z,34.49
2018-07-16T09:28:10.345Z,34.50
2018-07-16T09:29:10.344Z,34.19
2018-07-16T09:30:10.340Z,34.61
2018-07-16T09:31:10.346Z,34.97
2018-07-16T09:32:10.327Z,35.23
2018-07-16T09:33:10.325Z,35.60
2018-07-16T09:34:10.320Z,35.07
2018-07-16T09:35:10.316Z,33.41
2018-07-16T09:36:10.309Z,33.91
2018-07-16T09:37:10.320Z,33.97
2018-07-16T09:38:10.304Z,33.81
2018-07-16T09:39:10.361Z,33.72
2018-07-16T09:40:10.317Z,33.98
2018-07-16T09:41:10.300Z,34.46
2018-07-16T09:42:10.293Z,34.85
2018-07-16T09:43:10.321Z,35.16
2018-07-16T09:44:10.292Z,35.48
2018-07-16T09:45:10.289Z,35.58
2018-07-16T09:46:10.289Z,35.43
2018-07-16T09:47:10.293Z,35.29
2018-07-16T09:48:10.287Z,35.16
2018-07-16T09:49:10.308Z,35.09
2018-07-16T09:50:10.285Z,35.28
2018-07-16T09:51:10.285Z,35.25
2018-07-16T09:52:10.290Z,35.36
2018-07-16T09:53:10.295Z,35.43
2018-07-16T09:54:10.290Z,35.16
2018-07-16T09:55:10.301Z,34.30
2018-07-16T09:56:10.352Z,33.79
2018-07-16T09:57:10.284Z,34.22
2018-07-16T09:58:10.279Z,34.73
2018-07-16T09:59:10.298Z,35.07
2018-07-16T10:00:10.301Z,35.25
2018-07-16T10:01:10.300Z,35.53
2018-07-16T10:02:10.289Z,35.81
2018-07-16T10:03:10.286Z,35.87
2018-07-16T10:04:10.289Z,35.41
2018-07-16T10:05:10.306Z,35.26
2018-07-16T10:06:10.304Z,35.10
2018-07-16T10:07:10.291Z,35.23
2018-07-16T10:08:10.298Z,35.71
2018-07-16T10:09:10.296Z,36.05
2018-07-16T10:10:10.310Z,36.20
2018-07-16T10:11:10.296Z,36.32
2018-07-16T10:12:10.313Z,36.01
2018-07-16T10:13:10.297Z,36.07
2018-07-16T10:14:10.304Z,35.40
2018-07-16T10:15:10.298Z,34.65
2018-07-16T10:16:10.327Z,34.73
2018-07-16T10:17:10.306Z,34.85
2018-07-16T10:18:10.308Z,35.29
2018-07-16T10:19:10.310Z,35.03
2018-07-16T10:20:10.332Z,35.26
2018-07-16T10:21:10.328Z,35.63
2018-07-16T10:22:10.314Z,35.97
2018-07-16T10:23:10.329Z,36.19
2018-07-16T10:24:10.318Z,36.31
2018-07-16T10:25:10.323Z,36.32
2018-07-16T10:26:10.327Z,36.28
2018-07-16T10:27:10.341Z,36.25
2018-07-16T10:28:10.328Z,36.50
2018-07-16T10:29:10.348Z,36.65
2018-07-16T10:30:10.342Z,36.54
2018-07-16T10:31:10.333Z,36.50
2018-07-16T10:32:10.364Z,36.20
2018-07-16T10:33:10.344Z,36.47
2018-07-16T10:34:10.344Z,36.50
2018-07-16T10:35:10.343Z,36.47
2018-07-16T10:36:10.350Z,36.53
2018-07-16T10:37:10.354Z,36.84
2018-07-16T10:38:10.368Z,36.84
2018-07-16T10:39:10.364Z,36.32
2018-07-16T10:40:10.362Z,35.78
2018-07-16T10:41:10.362Z,34.91
2018-07-16T10:42:10.373Z,34.94
2018-07-16T10:43:10.386Z,35.33
2018-07-16T10:44:10.367Z,35.82
2018-07-16T10:45:10.374Z,36.34
2018-07-16T10:46:10.376Z,36.49
2018-07-16T10:47:10.385Z,36.56
2018-07-16T10:48:10.385Z,36.81
2018-07-16T10:49:10.402Z,37.02
2018-07-16T10:50:10.388Z,36.90
2018-07-16T10:51:10.397Z,37.00
2018-07-16T10:52:10.394Z,37.25
2018-07-16T10:53:10.399Z,37.36
2018-07-16T10:54:10.421Z,37.32
2018-07-16T10:55:10.427Z,37.24
2018-07-16T10:56:10.419Z,37.28
2018-07-16T10:57:10.417Z,37.07
2018-07-16T10:58:10.422Z,37.22
2018-07-16T10:59:10.421Z,37.31
2018-07-16T11:00:10.428Z,37.43
2018-07-16T11:01:10.451Z,37.51
2018-07-16T11:02:10.433Z,37.57
2018-07-16T11:03:10.481Z,37.57
2018-07-16T11:04:10.440Z,37.31
2018-07-16T11:05:10.449Z,37.29
2018-07-16T11:06:10.455Z,37.27
2018-07-16T11:07:10.464Z,37.22
2018-07-16T11:08:10.455Z,37.25
2018-07-16T11:09:10.457Z,37.21
2018-07-16T11:10:10.482Z,37.00
2018-07-16T11:11:10.466Z,36.95
2018-07-16T11:12:10.473Z,36.53
2018-07-16T11:13:10.479Z,36.62
2018-07-16T11:14:10.478Z,36.72
2018-07-16T11:15:10.599Z,36.68
2018-07-16T11:16:10.499Z,36.64
2018-07-16T11:17:10.509Z,36.72
2018-07-16T11:18:10.501Z,36.01
2018-07-16T11:19:10.503Z,35.89
2018-07-16T11:20:10.506Z,36.32
2018-07-16T11:21:10.527Z,36.25
2018-07-16T11:22:10.516Z,36.23
2018-07-16T11:23:10.519Z,36.34
2018-07-16T11:24:10.523Z,36.39
2018-07-16T11:25:10.533Z,36.31
2018-07-16T11:26:10.558Z,35.62
2018-07-16T11:27:10.539Z,35.18
2018-07-16T11:28:10.536Z,35.00
2018-07-16T11:29:10.543Z,34.85
2018-07-16T11:30:10.553Z,35.15
2018-07-16T11:31:10.550Z,35.58
2018-07-16T11:32:10.578Z,35.89
2018-07-16T11:33:10.579Z,36.09
2018-07-16T11:34:10.561Z,36.39
2018-07-16T11:35:10.569Z,36.32
2018-07-16T11:36:10.570Z,36.81
2018-07-16T11:37:10.577Z,36.27
2018-07-16T11:38:10.610Z,36.27
2018-07-16T11:39:10.588Z,36.31
2018-07-16T11:40:10.581Z,36.41
2018-07-16T11:41:10.596Z,36.35
2018-07-16T11:42:10.637Z,36.43
2018-07-16T11:43:10.615Z,36.49
2018-07-16T11:44:10.613Z,36.65
2018-07-16T11:45:10.605Z,36.81
2018-07-16T11:46:10.664Z,36.99
2018-07-16T11:47:10.613Z,37.10
2018-07-16T11:48:10.624Z,37.00
2018-07-16T11:49:10.640Z,35.81
2018-07-16T11:50:10.638Z,35.37
2018-07-16T11:51:10.645Z,34.96
2018-07-16T11:52:10.654Z,34.65
2018-07-16T11:53:10.646Z,34.56
2018-07-16T11:54:10.645Z,34.28
2018-07-16T11:55:10.664Z,34.59
2018-07-16T11:56:10.645Z,34.85
2018-07-16T11:57:10.653Z,35.22
2018-07-16T11:58:10.657Z,35.58
2018-07-16T11:59:10.670Z,35.66
2018-07-16T12:00:10.684Z,35.81
2018-07-16T12:01:10.668Z,35.84
2018-07-16T12:02:10.673Z,35.72
2018-07-16T12:03:10.678Z,35.82
2018-07-16T12:04:10.695Z,35.80
2018-07-16T12:05:10.755Z,35.68
2018-07-16T12:06:10.695Z,34.97
2018-07-16T12:07:10.693Z,34.89
2018-07-16T12:08:10.696Z,34.89
2018-07-16T12:09:10.698Z,34.87
2018-07-16T12:10:10.712Z,35.02
2018-07-16T12:11:10.722Z,35.07
2018-07-16T12:12:10.768Z,35.31
2018-07-16T12:13:10.722Z,35.34
2018-07-16T12:14:10.717Z,35.28
2018-07-16T12:15:10.735Z,35.22
2018-07-16T12:16:10.721Z,35.11
2018-07-16T12:17:10.739Z,35.18
2018-07-16T12:18:10.730Z,35.29
2018-07-16T12:19:10.734Z,35.19
2018-07-16T12:20:10.739Z,34.25
2018-07-16T12:21:10.757Z,33.66
2018-07-16T12:22:10.745Z,33.45
2018-07-16T12:23:10.751Z,33.78
2018-07-16T12:24:10.748Z,33.98
2018-07-16T12:25:10.752Z,33.82
2018-07-16T12:26:10.770Z,33.60
2018-07-16T12:27:10.777Z,32.94
2018-07-16T12:28:10.758Z,32.19
2018-07-16T12:29:10.762Z,31.88
2018-07-16T12:30:10.759Z,31.69
2018-07-16T12:31:10.767Z,31.43
2018-07-16T12:32:10.783Z,31.73
2018-07-16T12:33:10.764Z,32.13
2018-07-16T12:34:10.767Z,32.45
2018-07-16T12:35:10.777Z,32.88
2018-07-16T12:36:10.774Z,33.38
2018-07-16T12:37:10.771Z,33.60
2018-07-16T12:38:10.791Z,33.88
2018-07-16T12:39:10.788Z,34.05
2018-07-16T12:40:10.773Z,34.21
2018-07-16T12:41:10.773Z,34.28
2018-07-16T12:42:10.777Z,34.43
2018-07-16T12:43:10.777Z,34.52
2018-07-16T12:44:10.780Z,34.84
2018-07-16T12:45:10.798Z,34.94
2018-07-16T12:46:10.802Z,35.02
2018-07-16T12:47:10.782Z,35.06
2018-07-16T12:48:10.827Z,35.00
2018-07-16T12:49:10.785Z,34.99
2018-07-16T12:50:10.785Z,34.99
2018-07-16T12:51:10.803Z,34.99
2018-07-16T12:52:10.788Z,34.84